Time;durP1;ratioP1;P1;durP2;ratioP2;P2;SDS_P1;SDS_P2;PMS_P1;PMS_P2;Temp;Humidity;BMP_temperature;BMP_pressure;BME280_temperature;BME280_humidity;BME280_pressure;Samples;Min_cycle;Max_cycle;Signal;HPM_P1;HPM_P2
2023/09/30 00:01:40;;;;;;;2.20;1.90;;;;;;;18.04;100.00;101130.22;4963200;28;20638;-77
2023/09/30 00:04:07;;;;;;;2.23;1.83;;;;;;;18.06;100.00;101136.28;4965872;28;20705;-75
2023/09/30 00:06:32;;;;;;;2.97;1.93;;;;;;;18.08;100.00;101137.09;4967762;28;20204;-77
2023/09/30 00:08:57;;;;;;;2.40;1.87;;;;;;;18.09;100.00;101128.34;4958599;28;20216;-78
2023/09/30 00:11:23;;;;;;;2.50;1.80;;;;;;;18.10;100.00;101124.81;4956203;28;20210;-78
2023/09/30 00:13:49;;;;;;;2.50;1.80;;;;;;;18.12;100.00;101127.38;4963460;28;20284;-76
2023/09/30 00:16:17;;;;;;;1.97;1.70;;;;;;;18.12;100.00;101128.28;4966333;28;20187;-77
2023/09/30 00:18:42;;;;;;;1.70;1.60;;;;;;;18.13;100.00;101131.72;4960509;28;20210;-77
2023/09/30 00:21:08;;;;;;;2.27;1.90;;;;;;;18.16;100.00;101138.63;4973425;28;20218;-77
2023/09/30 00:23:33;;;;;;;2.27;1.90;;;;;;;18.16;100.00;101136.00;4961441;28;20192;-76
2023/09/30 00:25:59;;;;;;;2.30;1.93;;;;;;;18.16;100.00;101139.50;4963868;28;20278;-76
2023/09/30 00:28:25;;;;;;;2.33;2.13;;;;;;;18.17;100.00;101135.13;4973435;28;20275;-77
2023/09/30 00:30:50;;;;;;;3.93;2.07;;;;;;;18.13;100.00;101136.97;4967519;28;20276;-77
2023/09/30 00:33:15;;;;;;;3.47;2.03;;;;;;;18.09;100.00;101141.44;4967441;28;20181;-77
2023/09/30 00:35:41;;;;;;;3.77;2.30;;;;;;;18.05;100.00;101141.56;4970042;28;20677;-76
2023/09/30 00:38:06;;;;;;;2.83;1.97;;;;;;;18.00;100.00;101144.28;4970061;28;20192;-77
2023/09/30 00:40:31;;;;;;;2.40;2.00;;;;;;;17.95;100.00;101147.00;4967981;28;20215;-76
2023/09/30 00:42:58;;;;;;;2.33;1.97;;;;;;;17.93;100.00;101151.41;4968047;28;20220;-77
2023/09/30 00:45:23;;;;;;;2.50;1.83;;;;;;;17.92;100.00;101146.22;4963168;28;20186;-76
2023/09/30 00:47:48;;;;;;;2.63;1.80;;;;;;;17.92;100.00;101143.59;4964989;28;20192;-77
2023/09/30 00:50:14;;;;;;;2.63;1.90;;;;;;;17.91;100.00;101148.00;4961014;28;20216;-77
2023/09/30 00:52:40;;;;;;;5.00;2.40;;;;;;;17.90;100.00;101146.28;4965675;28;20354;-77
2023/09/30 00:55:07;;;;;;;2.90;2.27;;;;;;;17.90;100.00;101146.28;4966461;28;20211;-76
2023/09/30 00:57:33;;;;;;;2.30;1.73;;;;;;;17.90;100.00;101137.53;4968163;28;20194;-76
2023/09/30 01:00:01;;;;;;;3.07;1.70;;;;;;;17.90;100.00;101137.53;4965506;28;20257;-76
2023/09/30 01:02:26;;;;;;;2.83;2.00;;;;;;;17.88;100.00;101145.47;4965405;28;20790;-75
2023/09/30 01:04:52;;;;;;;2.40;1.93;;;;;;;17.87;100.00;101151.59;4967267;28;20188;-76
2023/09/30 01:07:17;;;;;;;1.90;1.60;;;;;;;17.86;100.00;101154.22;4965013;28;20663;-77
2023/09/30 01:09:43;;;;;;;2.57;1.87;;;;;;;17.86;100.00;101151.59;4966258;28;20217;-76
2023/09/30 01:12:08;;;;;;;1.90;1.67;;;;;;;17.88;100.00;101149.81;4969483;28;20269;-75
2023/09/30 01:14:35;;;;;;;1.80;1.60;;;;;;;17.87;100.00;101148.97;4966955;28;20244;-76
2023/09/30 01:17:01;;;;;;;2.90;1.53;;;;;;;17.87;100.00;101146.34;4964006;28;20192;-75
2023/09/30 01:19:27;;;;;;;2.40;1.60;;;;;;;17.86;100.00;101149.88;4961011;28;20629;-76
2023/09/30 01:21:59;;;;;;;2.10;1.60;;;;;;;17.85;100.00;101139.44;4967819;28;21024;-75
2023/09/30 01:24:38;;;;;;;2.00;1.70;;;;;;;17.83;100.00;101145.59;4968529;28;20188;-76
2023/09/30 01:27:03;;;;;;;1.67;1.47;;;;;;;17.82;100.00;101138.63;4960863;28;20275;-75
2023/09/30 01:29:29;;;;;;;2.10;1.70;;;;;;;17.83;100.00;101139.47;4961389;28;20283;-76
2023/09/30 01:31:54;;;;;;;2.27;1.67;;;;;;;17.82;100.00;101138.63;4959328;28;20184;-76
2023/09/30 01:34:19;;;;;;;2.20;2.00;;;;;;;17.81;100.00;101144.75;4971298;28;20192;-76
2023/09/30 01:36:45;;;;;;;1.83;1.70;;;;;;;17.81;100.00;101146.50;4969149;28;20839;-75
2023/09/30 01:39:11;;;;;;;2.13;1.77;;;;;;;17.82;100.00;101146.47;4970753;28;20340;-76
2023/09/30 01:41:40;;;;;;;2.17;1.90;;;;;;;17.82;100.00;101143.84;4958813;28;20247;-78
2023/09/30 01:44:06;;;;;;;3.00;2.13;;;;;;;17.83;100.00;101145.59;4967015;28;20189;-76
2023/09/30 01:46:31;;;;;;;3.77;2.30;;;;;;;17.83;100.00;101158.66;4959695;28;20624;-75
2023/09/30 01:48:57;;;;;;;2.33;2.13;;;;;;;17.81;100.00;101154.34;4963892;28;20213;-75
2023/09/30 01:51:23;;;;;;;2.83;2.00;;;;;;;17.79;100.00;101151.78;4965468;28;20713;-77
2023/09/30 01:53:48;;;;;;;2.50;1.97;;;;;;;17.78;100.00;101154.41;4961984;28;20335;-78
2023/09/30 01:56:14;;;;;;;2.00;1.80;;;;;;;17.77;100.00;101152.72;4972288;28;20265;-76
2023/09/30 01:58:39;;;;;;;2.50;1.97;;;;;;;17.75;100.00;101149.28;4978647;28;20191;-77
2023/09/30 02:01:05;;;;;;;3.00;2.00;;;;;;;17.72;100.00;101147.59;4954821;28;20305;-76
2023/09/30 02:03:30;;;;;;;1.97;1.80;;;;;;;17.71;100.00;101158.94;4965006;28;20191;-78
2023/09/30 02:05:57;;;;;;;2.17;1.97;;;;;;;17.69;100.00;101158.16;4965964;28;20193;-76
2023/09/30 02:08:23;;;;;;;2.10;1.90;;;;;;;17.70;100.00;101159.00;4972327;28;20181;-76
2023/09/30 02:10:48;;;;;;;1.73;1.63;;;;;;;17.69;100.00;101158.16;4967723;28;20195;-76
2023/09/30 02:13:14;;;;;;;2.33;1.80;;;;;;;17.67;100.00;101158.19;4963307;28;20186;-75
2023/09/30 02:15:42;;;;;;;2.40;2.10;;;;;;;17.67;100.00;101159.94;4967226;28;20247;-76
2023/09/30 02:18:09;;;;;;;3.50;2.50;;;;;;;17.67;100.00;101154.72;4964307;28;20551;-75
2023/09/30 02:20:34;;;;;;;2.60;2.00;;;;;;;17.64;100.00;101149.53;4967254;28;20296;-75
2023/09/30 02:23:02;;;;;;;2.93;2.30;;;;;;;17.64;100.00;101153.00;4966938;28;20263;-76
2023/09/30 02:25:27;;;;;;;2.30;2.10;;;;;;;17.63;100.00;101142.59;4962864;28;20186;-77
2023/09/30 02:27:52;;;;;;;2.27;1.80;;;;;;;17.62;100.00;101148.72;4963948;28;20188;-76
2023/09/30 02:30:18;;;;;;;2.13;1.90;;;;;;;17.60;100.00;101146.16;4968905;28;20236;-76
2023/09/30 02:32:46;;;;;;;2.00;1.80;;;;;;;17.60;100.00;101147.91;4962875;28;20325;-76
2023/09/30 02:35:11;;;;;;;2.70;1.93;;;;;;;17.58;100.00;101152.31;4970472;28;20188;-76
2023/09/30 02:37:37;;;;;;;2.10;1.90;;;;;;;17.55;100.00;101153.25;4966522;28;20854;-76
2023/09/30 02:40:09;;;;;;;2.23;2.03;;;;;;;17.55;100.00;101147.13;4964805;28;20214;-75
2023/09/30 02:42:36;;;;;;;2.50;2.13;;;;;;;17.51;100.00;101147.25;4959996;28;20221;-76
2023/09/30 02:45:02;;;;;;;2.77;2.00;;;;;;;17.49;100.00;101153.38;4961064;28;20186;-76
2023/09/30 02:47:28;;;;;;;3.40;1.60;;;;;;;17.48;100.00;101160.38;4959589;28;20202;-77
2023/09/30 02:49:54;;;;;;;2.13;1.87;;;;;;;17.46;100.00;101174.41;4960846;28;20206;-76
2023/09/30 02:52:20;;;;;;;1.80;1.63;;;;;;;17.45;100.00;101170.91;4963484;28;20207;-76
2023/09/30 02:54:46;;;;;;;2.23;2.03;;;;;;;17.44;100.00;101163.97;4963917;28;20364;-76
2023/09/30 02:57:11;;;;;;;2.23;2.03;;;;;;;17.43;100.00;101157.00;4962958;28;20863;-76
2023/09/30 02:59:36;;;;;;;2.63;1.87;;;;;;;17.44;100.00;101155.28;4958072;28;21463;-76
2023/09/30 03:02:03;;;;;;;2.27;1.90;;;;;;;17.43;100.00;101162.25;4964272;28;20218;-77
2023/09/30 03:04:28;;;;;;;2.37;1.90;;;;;;;17.42;100.00;101162.28;4965377;28;20193;-76
2023/09/30 03:06:56;;;;;;;1.93;1.73;;;;;;;17.42;100.00;101170.13;4959208;28;20289;-76
2023/09/30 03:09:22;;;;;;;2.30;1.80;;;;;;;17.41;100.00;101171.03;4964936;28;20213;-76
2023/09/30 03:11:48;;;;;;;2.93;1.97;;;;;;;17.40;100.00;101191.09;4965415;28;20599;-77
2023/09/30 03:14:13;;;;;;;2.00;1.70;;;;;;;17.39;100.00;101191.13;4960965;28;20181;-77
2023/09/30 03:16:41;;;;;;;1.93;1.67;;;;;;;17.38;100.00;101182.44;4960702;28;20187;-76
2023/09/30 03:19:08;;;;;;;2.13;1.77;;;;;;;17.36;100.00;101171.16;4964703;28;20214;-77
2023/09/30 03:21:33;;;;;;;2.93;2.33;;;;;;;17.36;100.00;101179.84;4964493;28;20258;-77
2023/09/30 03:23:58;;;;;;;2.23;1.90;;;;;;;17.36;100.00;101173.75;4963871;28;20187;-77
2023/09/30 03:26:24;;;;;;;2.37;1.80;;;;;;;17.33;100.00;101158.97;4959121;28;20178;-76
2023/09/30 03:28:50;;;;;;;2.37;1.83;;;;;;;17.30;100.00;101158.19;4964643;28;20216;-76
2023/09/30 03:31:19;;;;;;;2.73;2.00;;;;;;;17.28;100.00;101146.91;4969836;28;20180;-76
2023/09/30 03:33:46;;;;;;;2.53;1.97;;;;;;;17.26;100.00;101156.53;4975780;28;20420;-74
2023/09/30 03:36:12;;;;;;;2.20;1.87;;;;;;;17.25;100.00;101162.66;4955579;28;20552;-75
2023/09/30 03:38:39;;;;;;;2.20;2.00;;;;;;;17.22;100.00;101155.75;4950743;28;20283;-76
2023/09/30 03:41:07;;;;;;;2.07;1.80;;;;;;;17.21;100.00;101167.13;4963753;28;20176;-77
2023/09/30 03:43:34;;;;;;;2.07;1.87;;;;;;;17.21;100.00;101167.13;4962705;28;20651;-76
2023/09/30 03:46:00;;;;;;;3.27;1.80;;;;;;;17.23;100.00;101161.88;4964798;28;20187;-76
2023/09/30 03:48:26;;;;;;;3.10;2.00;;;;;;;17.22;100.00;101166.22;4966197;28;20197;-76
2023/09/30 03:50:53;;;;;;;2.07;1.87;;;;;;;17.19;100.00;101172.38;4958901;28;20184;-75
2023/09/30 03:53:19;;;;;;;2.67;2.10;;;;;;;17.17;100.00;101173.28;4961008;28;20190;-76
2023/09/30 03:55:45;;;;;;;3.77;2.23;;;;;;;17.13;100.00;101175.13;4963364;28;20184;-76
2023/09/30 03:58:12;;;;;;;2.33;1.83;;;;;;;17.12;100.00;101167.34;4958101;28;20214;-77
2023/09/30 04:00:38;;;;;;;3.00;2.20;;;;;;;17.11;100.00;101178.69;4954431;28;20554;-77
2023/09/30 04:03:04;;;;;;;2.00;1.90;;;;;;;17.08;100.00;101182.25;4967284;28;20206;-76
2023/09/30 04:05:30;;;;;;;2.20;1.93;;;;;;;17.05;100.00;101184.91;4973011;28;21030;-77
2023/09/30 04:07:56;;;;;;;2.73;2.20;;;;;;;17.00;100.00;101179.78;4968921;28;20190;-77
2023/09/30 04:10:22;;;;;;;2.30;2.10;;;;;;;16.97;100.00;101179.84;4974215;28;20217;-77
2023/09/30 04:12:48;;;;;;;2.50;2.00;;;;;;;16.95;100.00;101179.00;4959552;28;20210;-77
2023/09/30 04:15:13;;;;;;;2.73;1.97;;;;;;;16.92;100.00;101187.75;4963809;28;20274;-77
2023/09/30 04:17:39;;;;;;;2.13;1.77;;;;;;;16.91;100.00;101190.38;4962915;28;20268;-77
2023/09/30 04:20:09;;;;;;;2.70;1.90;;;;;;;16.89;100.00;101190.44;4976616;28;20205;-76
2023/09/30 04:22:35;;;;;;;2.43;1.90;;;;;;;16.89;100.00;101190.44;4961628;28;20708;-77
2023/09/30 04:25:01;;;;;;;3.20;2.20;;;;;;;16.91;100.00;101191.28;4966626;28;20189;-77
2023/09/30 04:27:27;;;;;;;3.97;2.37;;;;;;;16.93;100.00;101201.69;4959090;28;20543;-77
2023/09/30 04:29:53;;;;;;;6.87;3.90;;;;;;;16.91;100.00;101201.72;4962055;28;20300;-77
2023/09/30 04:32:19;;;;;;;4.60;3.40;;;;;;;16.91;100.00;101191.28;4966155;28;20188;-77
2023/09/30 04:34:46;;;;;;;3.07;2.53;;;;;;;16.91;100.00;101204.34;4959370;28;20184;-77
2023/09/30 04:37:13;;;;;;;3.17;2.47;;;;;;;16.91;100.00;101211.31;4985216;28;20285;-77
2023/09/30 04:39:39;;;;;;;4.40;2.53;;;;;;;16.89;100.00;101213.09;4973222;28;20207;-77
2023/09/30 04:42:04;;;;;;;2.97;2.60;;;;;;;16.85;100.00;101217.53;4964773;28;20215;-77
2023/09/30 04:44:31;;;;;;;4.10;3.10;;;;;;;16.82;100.00;101207.13;4966255;28;20698;-76
2023/09/30 04:46:57;;;;;;;5.60;3.47;;;;;;;16.75;100.00;101202.94;4962916;28;20187;-76
2023/09/30 04:49:23;;;;;;;4.23;2.83;;;;;;;16.71;100.00;101214.31;4952567;28;20246;-77
2023/09/30 04:51:49;;;;;;;4.80;2.67;;;;;;;16.70;100.00;101220.44;4966094;28;20194;-77
2023/09/30 04:54:14;;;;;;;3.03;2.73;;;;;;;16.71;100.00;101228.25;4960569;28;20211;-77
2023/09/30 04:56:40;;;;;;;4.27;2.70;;;;;;;16.73;100.00;101228.22;4964523;28;20201;-77
2023/09/30 04:59:05;;;;;;;2.93;2.60;;;;;;;16.74;100.00;101219.50;4961601;28;20264;-77
2023/09/30 05:01:30;;;;;;;3.20;2.13;;;;;;;16.72;100.00;101211.66;4962732;28;20732;-76
2023/09/30 05:03:55;;;;;;;4.03;2.77;;;;;;;16.71;100.00;101217.78;4971538;28;20194;-77
2023/09/30 05:06:21;;;;;;;3.43;2.50;;;;;;;16.68;100.00;101210.03;4954223;28;20275;-78
2023/09/30 05:08:47;;;;;;;5.17;2.50;;;;;;;16.63;100.00;101214.47;4958359;28;20506;-77
2023/09/30 05:11:13;;;;;;;3.23;2.40;;;;;;;16.56;100.00;101205.06;4957241;28;20516;-76
2023/09/30 05:13:38;;;;;;;3.70;3.10;;;;;;;16.49;100.00;101219.09;4957353;28;20208;-79
2023/09/30 05:16:04;;;;;;;3.17;2.57;;;;;;;16.43;100.00;101217.47;4960339;28;20194;-77
2023/09/30 05:18:29;;;;;;;3.50;2.70;;;;;;;16.39;100.00;101210.56;4959246;28;20521;-76
2023/09/30 05:20:55;;;;;;;3.37;2.73;;;;;;;16.32;100.00;101207.22;4964505;28;20240;-76
2023/09/30 05:23:20;;;;;;;3.13;2.53;;;;;;;16.25;100.00;101213.44;4959546;28;20183;-77
2023/09/30 05:25:45;;;;;;;3.80;2.60;;;;;;;16.20;100.00;101230.94;4967585;28;20191;-78
2023/09/30 05:28:11;;;;;;;2.60;2.30;;;;;;;16.14;100.00;101218.84;4979467;28;20185;-76
2023/09/30 05:30:37;;;;;;;3.77;2.80;;;;;;;16.11;100.00;101218.91;4967580;28;20780;-77
2023/09/30 05:33:03;;;;;;;3.07;2.77;;;;;;;16.08;100.00;101229.38;4967597;28;20201;-78
2023/09/30 05:35:29;;;;;;;3.80;2.67;;;;;;;16.06;100.00;101228.56;4967091;28;20213;-76
2023/09/30 05:37:54;;;;;;;3.63;2.70;;;;;;;16.02;100.00;101232.97;4966739;28;20197;-76
2023/09/30 05:40:26;;;;;;;3.23;2.70;;;;;;;16.01;100.00;101233.84;4957833;28;20215;-76
2023/09/30 05:42:57;;;;;;;3.33;2.73;;;;;;;16.01;100.00;101239.06;4980150;28;20217;-77
2023/09/30 05:45:23;;;;;;;3.60;2.80;;;;;;;16.00;100.00;101221.69;4971161;28;20224;-76
2023/09/30 05:47:49;;;;;;;3.30;2.70;;;;;;;15.98;100.00;101211.28;4968017;28;20273;-76
2023/09/30 05:50:16;;;;;;;5.50;3.50;;;;;;;15.97;100.00;101209.56;4970039;28;20310;-76
2023/09/30 05:52:45;;;;;;;3.57;2.90;;;;;;;15.97;100.00;101221.72;4969997;28;20217;-76
2023/09/30 05:55:11;;;;;;;3.23;2.93;;;;;;;15.95;100.00;101234.81;4970317;28;20670;-76
2023/09/30 05:57:36;;;;;;;4.67;2.97;;;;;;;15.95;100.00;101239.19;4969443;28;20203;-77
2023/09/30 06:00:20;;;;;;;2.87;2.57;;;;;;;15.96;100.00;101241.78;4977094;28;20209;-78
2023/09/30 06:02:47;;;;;;;3.20;2.70;;;;;;;15.98;100.00;101239.13;4965304;28;20224;-76
2023/09/30 06:05:12;;;;;;;3.23;2.50;;;;;;;16.02;100.00;101258.22;4963210;28;20190;-78
2023/09/30 06:07:37;;;;;;;3.23;2.90;;;;;;;16.03;100.00;101258.19;4961733;28;20252;-77
2023/09/30 06:10:03;;;;;;;3.50;3.20;;;;;;;16.05;100.00;101258.16;4959137;28;20215;-79
2023/09/30 06:12:29;;;;;;;4.20;3.00;;;;;;;16.09;100.00;101259.84;4966070;28;20287;-77
2023/09/30 06:14:54;;;;;;;3.87;3.47;;;;;;;16.14;100.00;101248.44;4972952;28;20194;-77
2023/09/30 06:17:22;;;;;;;3.57;3.27;;;;;;;16.21;100.00;101261.41;4969985;28;20192;-77
2023/09/30 06:19:50;;;;;;;6.07;3.87;;;;;;;16.25;100.00;101278.75;4970234;28;21002;-77
2023/09/30 06:22:15;;;;;;;6.73;4.07;;;;;;;16.28;100.00;101282.16;4966090;28;20237;-76
2023/09/30 06:24:41;;;;;;;5.40;4.10;;;;;;;16.32;100.00;101282.13;4965102;28;20224;-76
2023/09/30 06:27:07;;;;;;;4.63;3.90;;;;;;;16.35;100.00;101293.38;4965442;28;21030;-76
2023/09/30 06:29:33;;;;;;;6.30;4.37;;;;;;;16.45;100.00;101296.69;4964484;28;20309;-77
2023/09/30 06:31:58;;;;;;;6.30;4.83;;;;;;;16.53;100.00;101292.19;4963785;28;20844;-77
2023/09/30 06:34:24;;;;;;;6.50;4.97;;;;;;;16.53;100.00;101284.34;4959472;28;20272;-77
2023/09/30 06:36:49;;;;;;;5.17;4.67;;;;;;;16.52;100.00;101279.16;4957097;28;20326;-77
2023/09/30 06:39:14;;;;;;;5.83;4.80;;;;;;;16.54;100.00;101285.22;4964263;28;20264;-76
2023/09/30 06:41:40;;;;;;;5.70;4.50;;;;;;;16.55;100.00;101293.00;4957771;28;20222;-77
2023/09/30 06:44:05;;;;;;;5.93;4.90;;;;;;;16.55;100.00;101294.78;4971114;28;20192;-78
2023/09/30 06:46:30;;;;;;;4.87;4.33;;;;;;;16.57;100.00;101288.63;4955640;28;20207;-78
2023/09/30 06:48:56;;;;;;;4.87;4.07;;;;;;;16.60;100.00;101285.97;4959783;28;21118;-77
2023/09/30 06:51:21;;;;;;;6.13;4.43;;;;;;;16.67;100.00;101278.00;4960126;28;20322;-78
2023/09/30 06:53:46;;;;;;;5.27;3.90;;;;;;;16.74;100.00;101261.31;4959422;28;20191;-77
2023/09/30 06:56:15;;;;;;;6.53;4.03;;;;;;;16.84;100.00;101265.47;4963805;28;20191;-78
2023/09/30 06:58:40;;;;;;;5.83;5.10;;;;;;;16.92;100.00;101275.78;4966212;28;20233;-77
2023/09/30 07:01:06;;;;;;;5.13;4.30;;;;;;;16.99;100.00;101285.28;4963752;28;20205;-79
2023/09/30 07:03:32;;;;;;;4.30;3.97;;;;;;;17.06;100.00;101288.63;4957648;28;20201;-78
2023/09/30 07:06:00;;;;;;;4.97;4.03;;;;;;;17.15;100.00;101291.03;4962832;28;20202;-78
2023/09/30 07:08:26;;;;;;;5.27;4.77;;;;;;;17.17;100.00;101298.84;4961981;28;20195;-77
2023/09/30 07:10:52;;;;;;;5.70;4.73;;;;;;;17.19;100.00;101304.91;4962813;28;20188;-77
2023/09/30 07:13:18;;;;;;;5.70;4.90;;;;;;;17.20;100.00;101310.13;4962360;28;20197;-78
2023/09/30 07:15:43;;;;;;;7.33;5.00;;;;;;;17.15;100.00;101322.44;4957342;28;22604;-77
2023/09/30 07:18:09;;;;;;;6.20;5.30;;;;;;;17.05;100.00;101320.91;4959737;28;20204;-77
2023/09/30 07:20:34;;;;;;;6.97;4.50;;;;;;;17.21;100.00;101310.97;4967639;28;20723;-78
2023/09/30 07:23:01;;;;;;;6.67;5.00;;;;;;;17.40;100.00;101308.00;4967253;28;20615;-79
2023/09/30 07:25:26;;;;;;;8.17;4.87;;;;;;;17.43;100.00;101306.16;4965148;28;20681;-77
2023/09/30 07:27:52;;;;;;;6.03;4.37;;;;;;;17.52;100.00;101308.59;4954456;28;20184;-77
2023/09/30 07:30:17;;;;;;;15.73;10.70;;;;;;;17.32;100.00;101319.47;4961181;28;20243;-77
2023/09/30 07:32:43;;;;;;;7.03;6.33;;;;;;;17.08;100.00;101325.19;4957155;28;20207;-77
2023/09/30 07:35:09;;;;;;;6.13;5.10;;;;;;;16.91;100.00;101327.22;4963228;28;20292;-76
2023/09/30 07:37:35;;;;;;;7.60;5.23;;;;;;;16.99;100.00;101336.69;4960570;28;21015;-76
2023/09/30 07:40:00;;;;;;;9.20;6.30;;;;;;;17.09;100.00;101325.19;4962088;28;20288;-77
2023/09/30 07:42:26;;;;;;;8.27;6.40;;;;;;;17.03;100.00;101323.53;4963236;28;20224;-76
2023/09/30 07:44:51;;;;;;;6.10;4.83;;;;;;;17.10;100.00;101312.97;4958087;28;20227;-76
2023/09/30 07:47:17;;;;;;;9.10;6.50;;;;;;;17.24;100.00;101324.00;4957148;28;20219;-78
2023/09/30 07:49:42;;;;;;;8.70;6.27;;;;;;;17.22;100.00;101323.16;4954370;28;20304;-77
2023/09/30 07:52:08;;;;;;;9.30;5.90;;;;;;;17.13;100.00;101312.91;4956515;28;20187;-76
2023/09/30 07:54:33;;;;;;;7.17;5.97;;;;;;;17.19;100.00;101312.75;4953659;28;20352;-76
2023/09/30 07:56:59;;;;;;;5.83;5.23;;;;;;;17.42;100.00;101308.81;4957763;28;20225;-77
2023/09/30 07:59:25;;;;;;;8.50;5.70;;;;;;;17.58;100.00;101315.44;4963135;28;21171;-76
2023/09/30 08:01:52;;;;;;;5.97;5.37;;;;;;;17.70;100.00;101310.84;4961455;28;20212;-78
2023/09/30 08:04:18;;;;;;;7.27;6.40;;;;;;;17.74;100.00;101318.56;4960956;28;20229;-78
2023/09/30 08:06:43;;;;;;;7.67;5.13;;;;;;;17.74;100.00;101315.13;4961035;28;20273;-78
2023/09/30 08:09:11;;;;;;;9.07;6.07;;;;;;;17.77;100.00;101312.44;4958447;28;20238;-77
2023/09/30 08:11:37;;;;;;;6.93;5.47;;;;;;;17.89;100.00;101320.00;4956608;28;20881;-78
2023/09/30 08:14:06;;;;;;;10.33;6.17;;;;;;;17.93;100.00;101308.53;4962786;28;20196;-76
2023/09/30 08:16:33;;;;;;;7.27;5.40;;;;;;;18.07;100.00;101313.50;4962533;28;20217;-78
2023/09/30 08:18:58;;;;;;;6.70;5.63;;;;;;;18.15;100.00;101312.47;4959388;28;20213;-79
2023/09/30 08:21:23;;;;;;;8.20;6.10;;;;;;;17.95;100.00;101313.75;4959770;28;20252;-78
2023/09/30 08:23:49;;;;;;;6.13;5.47;;;;;;;18.10;100.00;101297.72;4958449;28;20225;-78
2023/09/30 08:26:14;;;;;;;8.97;6.43;;;;;;;18.12;100.00;101285.44;4960442;28;20788;-78
2023/09/30 08:28:40;;;;;;;6.87;5.63;;;;;;;18.03;100.00;101283.03;4962485;28;20628;-78
2023/09/30 08:31:05;;;;;;;6.30;5.10;;;;;;;18.21;100.00;101283.47;4958639;28;20173;-77
2023/09/30 08:33:32;;;;;;;6.77;5.37;;;;;;;18.24;100.00;101286.88;4960623;28;20201;-76
2023/09/30 08:36:08;;;;;;;7.77;5.87;;;;;;;18.14;100.00;101295.88;4961370;28;20273;-78
2023/09/30 08:38:35;;;;;;;7.90;5.73;;;;;;;18.17;100.00;101301.03;4959367;28;20181;-77
2023/09/30 08:41:02;;;;;;;7.47;5.40;;;;;;;18.41;100.00;101299.56;4962104;28;20185;-77
2023/09/30 08:43:30;;;;;;;6.87;5.03;;;;;;;18.59;100.00;101300.84;4959329;28;20264;-77
2023/09/30 08:45:56;;;;;;;7.00;5.37;;;;;;;18.59;100.00;101306.09;4961211;28;20205;-78
2023/09/30 08:48:23;;;;;;;5.87;4.47;;;;;;;18.74;100.00;101304.84;4967477;28;20225;-77
2023/09/30 08:50:50;;;;;;;6.20;5.13;;;;;;;18.96;100.00;101306.03;4966019;28;20692;-77
2023/09/30 08:53:16;;;;;;;6.27;4.60;;;;;;;19.04;100.00;101310.16;4968567;28;20182;-78
2023/09/30 08:55:43;;;;;;;6.13;5.00;;;;;;;19.12;100.00;101315.19;4968167;28;20717;-77
2023/09/30 08:58:11;;;;;;;4.87;4.40;;;;;;;19.19;100.00;101310.63;4964624;28;20205;-76
2023/09/30 09:00:38;;;;;;;5.03;4.00;;;;;;;19.24;100.00;101313.13;4965766;28;20773;-78
2023/09/30 09:03:05;;;;;;;7.73;4.60;;;;;;;19.20;100.00;101314.97;4970909;28;20210;-77
2023/09/30 09:05:30;;;;;;;7.70;4.40;;;;;;;19.28;100.00;101314.75;4971277;28;20251;-78
2023/09/30 09:07:55;;;;;;;6.70;4.83;;;;;;;19.21;100.00;101306.19;4965625;28;20308;-79
2023/09/30 09:10:21;;;;;;;7.63;4.70;;;;;;;19.27;100.00;101306.00;4969364;28;20600;-77
2023/09/30 09:12:58;;;;;;;6.07;4.10;;;;;;;19.33;100.00;101302.34;4967925;28;20205;-77
2023/09/30 09:15:26;;;;;;;5.53;4.37;;;;;;;19.49;100.00;101308.00;4965594;28;20200;-78
2023/09/30 09:17:51;;;;;;;4.53;3.63;;;;;;;19.38;100.00;101300.44;4970339;28;20226;-78
2023/09/30 09:20:20;;;;;;;5.87;4.20;;;;;;;19.42;100.00;101299.47;4970409;28;20728;-78
2023/09/30 09:22:47;;;;;;;6.30;4.30;;;;;;;19.52;98.63;101300.03;4963859;28;20233;-77
2023/09/30 09:25:13;;;;;;;8.50;4.20;;;;;;;19.22;99.14;101297.41;4964519;28;20186;-78
2023/09/30 09:27:39;;;;;;;7.37;4.17;;;;;;;19.08;100.00;101297.81;4963577;28;20618;-77
2023/09/30 09:30:18;;;;;;;6.87;4.23;;;;;;;19.42;100.00;101281.09;4958347;28;20221;-79
2023/09/30 09:33:05;;;;;;;6.00;4.03;;;;;;;19.56;99.43;101288.53;4961800;28;20185;-76
2023/09/30 09:35:35;;;;;;;6.90;4.40;;;;;;;19.48;100.00;101291.38;4962264;28;20618;-77
2023/09/30 09:38:07;;;;;;;5.07;3.80;;;;;;;19.59;100.00;101284.94;4962921;28;20197;-77
2023/09/30 09:40:38;;;;;;;6.67;3.50;;;;;;;19.50;99.17;101280.84;4961873;28;20284;-76
2023/09/30 09:43:05;;;;;;;4.63;3.50;;;;;;;19.70;97.44;101288.13;4959213;28;20296;-76
2023/09/30 09:45:35;;;;;;;5.67;3.63;;;;;;;19.64;97.53;101286.53;4962493;28;20306;-76
2023/09/30 09:48:01;;;;;;;7.80;3.70;;;;;;;19.64;97.37;101291.78;4971327;28;20243;-77
2023/09/30 09:50:27;;;;;;;5.60;3.90;;;;;;;19.69;97.79;101290.75;4964354;28;20300;-78
2023/09/30 09:52:59;;;;;;;5.43;3.80;;;;;;;19.76;97.31;101281.81;4965635;28;20190;-77
2023/09/30 09:55:25;;;;;;;5.73;3.33;;;;;;;19.92;96.93;101284.81;4980238;28;20675;-76
2023/09/30 09:57:51;;;;;;;5.23;3.43;;;;;;;19.93;95.47;101290.03;4960473;28;20214;-76
2023/09/30 10:00:19;;;;;;;6.00;3.70;;;;;;;19.82;94.78;101286.00;4960975;28;20218;-76
2023/09/30 10:02:48;;;;;;;4.40;2.90;;;;;;;20.17;93.80;101282.25;4961390;28;20210;-77
2023/09/30 10:05:15;;;;;;;5.27;3.43;;;;;;;20.26;93.23;101281.09;4955942;28;20226;-76
2023/09/30 10:07:53;;;;;;;4.80;3.43;;;;;;;20.12;92.38;101286.78;4963637;28;20224;-76
2023/09/30 10:10:21;;;;;;;4.10;3.30;;;;;;;20.33;92.58;101274.72;4957066;28;20717;-77
2023/09/30 10:12:46;;;;;;;3.93;3.43;;;;;;;20.37;93.12;101272.84;4961714;28;20196;-78
2023/09/30 10:15:24;;;;;;;6.17;4.10;;;;;;;20.32;91.59;101277.38;4965032;28;20234;-76
2023/09/30 10:17:56;;;;;;;5.07;3.50;;;;;;;20.42;91.90;101270.88;4975749;28;20201;-77
2023/09/30 10:20:28;;;;;;;6.47;3.67;;;;;;;20.32;92.79;101270.38;4962043;28;20227;-76
2023/09/30 10:23:24;;;;;;;4.50;3.47;;;;;;;20.56;93.33;101270.44;4963440;28;20225;-76
2023/09/30 10:25:51;;;;;;;4.87;3.33;;;;;;;20.84;92.93;101269.47;4964262;28;20201;-77
2023/09/30 10:28:38;;;;;;;4.90;3.60;;;;;;;20.96;91.05;101261.13;4967991;28;20800;-76
2023/09/30 10:31:10;;;;;;;5.60;3.70;;;;;;;20.77;92.13;101266.19;4961674;28;20187;-76
2023/09/30 10:33:35;;;;;;;4.83;3.37;;;;;;;20.63;92.20;101274.56;4964977;28;20189;-76
2023/09/30 10:36:03;;;;;;;5.27;3.47;;;;;;;20.79;91.77;101267.00;4958022;28;20604;-77
2023/09/30 10:38:34;;;;;;;5.97;4.07;;;;;;;20.81;91.00;101264.31;4962274;28;20426;-78
2023/09/30 10:41:02;;;;;;;3.80;3.33;;;;;;;21.10;90.59;101249.25;4966655;28;20236;-76
2023/09/30 10:43:41;;;;;;;5.40;4.00;;;;;;;20.98;90.38;101255.81;4964602;28;20217;-77
2023/09/30 10:46:26;;;;;;;5.90;3.90;;;;;;;20.85;91.18;101253.66;4958561;28;20193;-76
2023/09/30 10:48:51;;;;;;;5.30;3.67;;;;;;;20.58;91.75;101249.31;4966931;28;20213;-76
2023/09/30 10:51:21;;;;;;;6.30;3.67;;;;;;;20.99;90.59;101249.63;4955903;28;20194;-77
2023/09/30 10:53:57;;;;;;;4.30;3.13;;;;;;;21.08;89.73;101251.91;4969438;28;20196;-77
2023/09/30 10:56:23;;;;;;;4.23;3.53;;;;;;;21.04;89.73;101255.56;4962233;28;20588;-77
2023/09/30 10:58:50;;;;;;;7.33;3.67;;;;;;;21.09;89.33;101253.63;4973759;28;20189;-77
2023/09/30 11:01:18;;;;;;;5.10;4.10;;;;;;;21.08;88.80;101245.81;4960943;28;20218;-78
2023/09/30 11:03:45;;;;;;;4.80;3.40;;;;;;;21.21;88.91;101243.53;4963484;28;20231;-77
2023/09/30 11:06:13;;;;;;;6.10;4.10;;;;;;;20.88;89.21;101238.63;4959031;28;20295;-76
2023/09/30 11:08:45;;;;;;;5.70;4.13;;;;;;;20.73;89.08;101240.03;4966721;28;20194;-77
2023/09/30 11:11:10;;;;;;;5.43;3.80;;;;;;;20.89;89.08;101233.34;4964532;28;20197;-77
2023/09/30 11:13:36;;;;;;;4.57;3.80;;;;;;;21.10;88.47;101231.66;4973675;28;20194;-79
2023/09/30 11:16:04;;;;;;;7.03;3.80;;;;;;;20.94;88.44;101236.66;4964899;28;20210;-79
2023/09/30 11:18:31;;;;;;;5.97;4.00;;;;;;;21.15;88.19;101226.22;4960075;28;20667;-77